Time;durP1;ratioP1;P1;durP2;ratioP2;P2;SDS_P1;SDS_P2;PMS_P1;PMS_P2;Temp;Humidity;BMP_temperature;BMP_pressure;BME280_temperature;BME280_humidity;BME280_pressure;Samples;Min_cycle;Max_cycle;Signal;HPM_P1;HPM_P2
2022/12/09 00:01:11;;;;;;;32.17;14.90;;;;;;;7.73;86.80;96444.34;5116642;28;20044;-62
2022/12/09 00:03:39;;;;;;;34.72;15.30;;;;;;;7.76;86.89;96444.28;5116681;28;20059;-62
2022/12/09 00:06:09;;;;;;;30.48;13.32;;;;;;;7.75;86.86;96442.56;5116621;28;20537;-62
2022/12/09 00:08:37;;;;;;;31.80;14.80;;;;;;;7.78;86.72;96437.28;5116595;28;20048;-62
2022/12/09 00:11:08;;;;;;;29.77;14.48;;;;;;;7.77;86.80;96424.31;5116502;28;20551;-62
2022/12/09 00:13:35;;;;;;;37.35;15.52;;;;;;;7.73;87.04;96431.34;5116486;28;20052;-62
2022/12/09 00:16:07;;;;;;;33.97;15.77;;;;;;;7.71;87.67;96433.16;5116411;28;20546;-62
2022/12/09 00:18:35;;;;;;;43.97;17.10;;;;;;;7.73;88.13;96440.91;5116302;28;20485;-62
2022/12/09 00:21:12;;;;;;;37.10;18.48;;;;;;;7.71;88.47;96440.97;5116339;28;20046;-62
2022/12/09 00:23:40;;;;;;;32.67;14.82;;;;;;;7.72;88.56;96434.84;5116325;28;20043;-63
2022/12/09 00:26:07;;;;;;;34.97;16.05;;;;;;;7.75;88.47;96439.97;5116337;28;20044;-62
2022/12/09 00:28:34;;;;;;;34.67;15.45;;;;;;;7.78;88.38;96434.69;5116108;28;20512;-62
2022/12/09 00:31:02;;;;;;;36.88;14.27;;;;;;;7.81;87.96;96432.00;5116193;28;20112;-62
2022/12/09 00:33:35;;;;;;;29.90;16.45;;;;;;;7.82;87.72;96433.69;5115992;28;20040;-62
2022/12/09 00:36:07;;;;;;;36.03;15.70;;;;;;;7.83;87.70;96440.59;5115795;28;20044;-62
2022/12/09 00:38:34;;;;;;;37.00;15.35;;;;;;;7.83;88.00;96448.41;5115615;28;20044;-62
2022/12/09 00:41:01;;;;;;;39.72;18.05;;;;;;;7.84;87.89;96439.72;5115647;28;20104;-62
2022/12/09 00:43:28;;;;;;;38.17;17.70;;;;;;;7.80;88.09;96430.25;5115910;28;20048;-62
2022/12/09 00:45:56;;;;;;;39.47;16.17;;;;;;;7.82;88.26;96441.50;5115965;28;20460;-62
2022/12/09 00:48:23;;;;;;;34.47;17.65;;;;;;;7.85;88.24;96437.94;5115840;28;20071;-62
2022/12/09 00:50:52;;;;;;;35.67;16.35;;;;;;;7.85;88.18;96427.53;5115824;28;20445;-62
2022/12/09 00:53:19;;;;;;;35.15;13.90;;;;;;;7.87;88.11;96425.75;5115678;28;20130;-62
2022/12/09 00:55:46;;;;;;;30.95;14.88;;;;;;;7.84;87.94;96423.22;5115705;28;20058;-62
2022/12/09 00:58:14;;;;;;;37.95;15.05;;;;;;;7.87;88.01;96430.09;5115628;28;20056;-62
2022/12/09 01:00:42;;;;;;;36.20;16.13;;;;;;;7.89;87.95;96436.13;5115576;28;20055;-62
2022/12/09 01:03:12;;;;;;;34.03;16.95;;;;;;;7.88;87.94;96443.06;5115450;28;20075;-63
2022/12/09 01:05:39;;;;;;;;;;;;;;;7.92;88.06;96441.25;5115921;28;20083;-62
2022/12/09 01:08:09;;;;;;;40.92;18.55;;;;;;;7.91;88.00;96444.72;5115524;28;20266;-62
2022/12/09 01:10:37;;;;;;;39.03;18.42;;;;;;;7.91;88.23;96448.19;5115514;28;20044;-62
2022/12/09 01:13:05;;;;;;;40.90;16.52;;;;;;;7.95;88.01;96451.56;5115300;28;20047;-62
2022/12/09 01:15:32;;;;;;;36.00;15.00;;;;;;;7.99;87.92;96460.13;5115389;28;20447;-62
2022/12/09 01:17:59;;;;;;;27.80;13.95;;;;;;;7.98;87.79;96461.91;5115204;28;20499;-62
2022/12/09 01:20:27;;;;;;;36.55;16.77;;;;;;;7.98;87.91;96454.09;5115162;28;20051;-63
2022/12/09 01:22:54;;;;;;;36.17;15.55;;;;;;;7.96;87.92;96450.66;5115170;28;20051;-62
2022/12/09 01:25:23;;;;;;;34.55;16.13;;;;;;;7.99;87.64;96447.13;5115085;28;20497;-62
2022/12/09 01:27:50;;;;;;;35.78;17.15;;;;;;;8.02;87.68;96437.47;5115098;28;20090;-63
2022/12/09 01:30:18;;;;;;;34.13;16.92;;;;;;;7.99;87.86;96429.75;5115027;28;20394;-62
2022/12/09 01:32:45;;;;;;;49.88;19.77;;;;;;;7.96;87.97;96437.66;5114908;28;20048;-63
2022/12/09 01:35:12;;;;;;;32.05;15.75;;;;;;;7.99;88.07;96439.28;5114758;28;20047;-62
2022/12/09 01:37:40;;;;;;;39.63;16.77;;;;;;;8.02;88.01;96436.59;5114874;28;20039;-62
2022/12/09 01:40:11;;;;;;;39.15;16.80;;;;;;;8.01;87.88;96425.31;5114679;28;20470;-63
2022/12/09 01:42:39;;;;;;;40.17;18.40;;;;;;;7.96;88.35;96441.13;5114688;28;20511;-62
2022/12/09 01:45:36;;;;;;;41.28;17.95;;;;;;;7.93;88.92;96436.00;5114642;28;20092;-62
2022/12/09 01:48:07;;;;;;;45.10;18.13;;;;;;;7.77;90.22;96435.56;5113932;28;20074;-62
2022/12/09 01:50:37;;;;;;;49.35;19.23;;;;;;;7.68;90.65;96434.06;5114344;28;20075;-62
2022/12/09 01:53:07;;;;;;;42.80;18.20;;;;;;;7.60;91.34;96436.03;5114595;28;20079;-63
2022/12/09 01:55:35;;;;;;;38.17;17.90;;;;;;;7.63;91.67;96437.69;5114416;28;20096;-62
2022/12/09 01:58:05;;;;;;;33.78;17.13;;;;;;;7.61;91.45;96445.56;5114372;28;20048;-62
2022/12/09 02:00:32;;;;;;;36.65;15.65;;;;;;;7.57;91.38;96434.38;5114325;28;20097;-62
2022/12/09 02:03:01;;;;;;;29.15;15.10;;;;;;;7.52;91.25;96419.75;5114308;28;20051;-62
2022/12/09 02:05:30;;;;;;;27.88;14.18;;;;;;;7.46;91.11;96420.78;5114311;28;20052;-62
2022/12/09 02:07:58;;;;;;;32.00;14.10;;;;;;;7.48;91.26;96425.97;5114321;28;20055;-62
2022/12/09 02:10:27;;;;;;;26.88;13.98;;;;;;;7.45;90.93;96416.50;5114314;28;20044;-62
2022/12/09 02:13:04;;;;;;;34.30;14.77;;;;;;;7.45;90.64;96422.56;5114183;28;20047;-62
2022/12/09 02:15:40;;;;;;;27.40;13.50;;;;;;;7.49;90.14;96422.47;5114064;28;20051;-62
2022/12/09 02:18:15;;;;;;;28.92;15.20;;;;;;;7.45;90.29;96430.38;5114033;28;20427;-62
2022/12/09 02:20:49;;;;;;;28.77;14.82;;;;;;;7.43;90.40;96436.50;5114112;28;20047;-62
2022/12/09 02:23:23;;;;;;;32.35;16.73;;;;;;;7.45;90.17;96437.31;5113930;28;20397;-63
2022/12/09 02:25:56;;;;;;;38.20;17.42;;;;;;;7.46;89.75;96439.00;5113938;28;20412;-62
2022/12/09 02:28:50;;;;;;;35.83;15.65;;;;;;;7.40;89.74;96444.38;5113904;28;20062;-62
2022/12/09 02:31:39;;;;;;;31.45;15.45;;;;;;;7.31;89.75;96429.88;5113944;28;20055;-62
2022/12/09 02:34:15;;;;;;;29.58;15.30;;;;;;;7.28;89.83;96438.63;5113683;28;20048;-62
2022/12/09 02:36:52;;;;;;;30.83;15.73;;;;;;;7.29;90.14;96431.69;5113585;28;20093;-62
2022/12/09 02:39:22;;;;;;;33.92;15.02;;;;;;;7.32;89.90;96432.44;5113692;28;20122;-62
2022/12/09 02:41:51;;;;;;;31.17;15.13;;;;;;;7.35;89.46;96428.06;5113468;28;20402;-62
2022/12/09 02:44:21;;;;;;;34.88;15.10;;;;;;;7.35;89.56;96422.84;5113717;28;20048;-62
2022/12/09 02:46:49;;;;;;;34.95;15.52;;;;;;;7.33;89.53;96417.69;5113586;28;20048;-62
2022/12/09 02:49:22;;;;;;;33.10;15.00;;;;;;;7.33;89.74;96417.69;5113584;28;20435;-62
2022/12/09 02:51:50;;;;;;;49.20;15.50;;;;;;;7.30;89.73;96418.63;5113500;28;20044;-62
2022/12/09 02:54:19;;;;;;;52.47;15.80;;;;;;;7.21;90.05;96424.06;5113457;28;20477;-62
2022/12/09 02:56:53;;;;;;;32.33;14.30;;;;;;;7.20;90.31;96428.41;5113481;28;20406;-62
2022/12/09 02:59:20;;;;;;;45.22;14.48;;;;;;;7.11;90.67;96426.06;5113171;28;20051;-62
2022/12/09 03:01:57;;;;;;;75.65;16.00;;;;;;;7.10;91.32;96439.13;5113428;28;20051;-62
2022/12/09 03:04:28;;;;;;;79.28;14.20;;;;;;;7.12;91.22;96438.16;5113696;28;20047;-62
2022/12/09 03:07:02;;;;;;;63.65;15.68;;;;;;;7.08;91.11;96436.56;5113333;28;20101;-62
2022/12/09 03:09:33;;;;;;;38.53;15.18;;;;;;;7.02;91.47;96432.38;5113381;28;20131;-62
2022/12/09 03:12:07;;;;;;;117.43;17.42;;;;;;;7.07;91.59;96445.22;5113451;28;20044;-62
2022/12/09 03:14:40;;;;;;;133.43;17.02;;;;;;;7.07;91.46;96443.50;5113270;28;20131;-62
2022/12/09 03:17:13;;;;;;;44.67;14.10;;;;;;;7.13;91.48;96434.66;5113224;28;20489;-62
2022/12/09 03:19:45;;;;;;;50.75;13.85;;;;;;;7.16;91.30;96441.53;5113206;28;20055;-62
2022/12/09 03:22:15;;;;;;;51.53;15.15;;;;;;;7.15;91.24;96435.50;5113301;28;20138;-62
2022/12/09 03:24:47;;;;;;;87.07;15.60;;;;;;;7.19;91.46;96431.91;5113207;28;20052;-62
2022/12/09 03:27:20;;;;;;;138.13;16.33;;;;;;;7.22;91.14;96437.94;5113134;28;20287;-62
2022/12/09 03:29:50;;;;;;;63.85;14.25;;;;;;;7.23;91.15;96435.31;5113301;28;20477;-62
2022/12/09 03:32:20;;;;;;;119.70;16.58;;;;;;;7.20;91.16;96430.16;5113273;28;20051;-62
2022/12/09 03:34:55;;;;;;;151.18;15.82;;;;;;;7.16;91.43;96437.19;5113274;28;20051;-62
2022/12/09 03:37:22;;;;;;;238.57;17.95;;;;;;;7.14;91.89;96441.59;5113114;28;20119;-62
2022/12/09 03:39:51;;;;;;;427.33;25.88;;;;;;;7.11;91.88;96441.69;5113068;28;20124;-62
2022/12/09 03:42:21;;;;;;;239.75;16.38;;;;;;;7.07;91.78;96442.63;5112955;28;20131;-62
2022/12/09 03:44:51;;;;;;;69.25;14.93;;;;;;;7.04;91.63;96445.31;5113096;28;20421;-62
2022/12/09 03:47:19;;;;;;;63.17;10.05;;;;;;;7.04;91.69;96440.97;5113262;28;20101;-62
2022/12/09 03:49:46;;;;;;;46.58;10.50;;;;;;;6.97;91.56;96436.81;5112962;28;20503;-62
2022/12/09 03:52:20;;;;;;;76.50;11.38;;;;;;;6.93;91.82;96443.00;5112992;28;20496;-62
2022/12/09 03:54:54;;;;;;;78.50;11.93;;;;;;;6.98;91.75;96454.13;5112934;28;20086;-62
2022/12/09 03:57:22;;;;;;;119.88;13.88;;;;;;;7.02;91.75;96462.72;5112916;28;20047;-62
2022/12/09 03:59:54;;;;;;;161.70;15.07;;;;;;;7.04;91.61;96466.09;5112994;28;20077;-62
2022/12/09 04:02:22;;;;;;;75.35;12.15;;;;;;;7.08;91.23;96471.19;5112913;28;20052;-62
2022/12/09 04:04:49;;;;;;;98.45;12.30;;;;;;;7.11;91.08;96478.09;5112866;28;20044;-62
2022/12/09 04:07:18;;;;;;;109.07;13.18;;;;;;;7.08;90.98;96483.38;5112932;28;20105;-62
2022/12/09 04:09:45;;;;;;;74.75;10.98;;;;;;;7.06;90.88;96478.22;5112831;28;20075;-62
2022/12/09 04:12:12;;;;;;;118.30;10.98;;;;;;;7.00;90.98;96474.88;5113951;28;20122;-62
2022/12/09 04:14:40;;;;;;;66.75;10.15;;;;;;;6.95;90.97;96468.06;5116482;28;20051;-62
2022/12/09 04:17:07;;;;;;;141.93;10.95;;;;;;;6.90;91.23;96464.72;5116552;28;20127;-62
2022/12/09 04:19:35;;;;;;;93.72;9.82;;;;;;;6.81;91.05;96470.16;5116290;28;20052;-62
2022/12/09 04:22:02;;;;;;;40.90;8.88;;;;;;;6.58;91.38;96468.94;5116285;28;20048;-62
2022/12/09 04:24:31;;;;;;;39.28;7.80;;;;;;;6.38;91.29;96467.63;5116205;28;20051;-62
2022/12/09 04:26:58;;;;;;;73.05;8.85;;;;;;;6.24;91.98;96462.78;5116108;28;20044;-62
2022/12/09 04:29:26;;;;;;;44.60;8.40;;;;;;;6.15;92.74;96462.97;5116047;28;20047;-62
2022/12/09 04:31:53;;;;;;;36.72;9.63;;;;;;;6.04;93.75;96461.44;5116067;28;20051;-62
2022/12/09 04:34:20;;;;;;;21.08;7.95;;;;;;;5.99;94.14;96457.22;5116044;28;20386;-62
2022/12/09 04:36:48;;;;;;;60.95;10.63;;;;;;;5.95;94.65;96453.81;5116006;28;20079;-62
2022/12/09 04:39:16;;;;;;;37.95;18.45;;;;;;;6.03;95.07;96456.25;5115872;28;20055;-62
2022/12/09 04:41:44;;;;;;;32.05;15.50;;;;;;;6.13;94.97;96455.19;5115767;28;20048;-62
2022/12/09 04:44:14;;;;;;;22.20;10.55;;;;;;;6.11;94.47;96453.53;5115970;28;20047;-62
2022/12/09 04:46:42;;;;;;;13.25;7.65;;;;;;;6.02;94.19;96455.41;5116038;28;20054;-62
2022/12/09 04:49:09;;;;;;;25.08;8.57;;;;;;;5.93;93.95;96466.81;5115839;28;20054;-62
2022/12/09 04:51:36;;;;;;;24.55;9.20;;;;;;;5.87;94.15;96455.72;5115632;28;20086;-62
2022/12/09 04:54:04;;;;;;;25.38;9.55;;;;;;;5.93;94.49;96460.81;5115687;28;20047;-62
2022/12/09 04:56:32;;;;;;;34.00;9.07;;;;;;;6.03;94.42;96464.91;5115478;28;20459;-62
2022/12/09 04:59:02;;;;;;;29.48;10.40;;;;;;;6.12;94.15;96473.41;5115561;28;20075;-62
2022/12/09 05:01:30;;;;;;;38.87;10.17;;;;;;;6.17;94.19;96467.22;5115577;28;20439;-62
2022/12/09 05:03:58;;;;;;;103.32;11.85;;;;;;;6.24;94.04;96474.91;5115553;28;20284;-62
2022/12/09 05:06:26;;;;;;;202.55;14.75;;;;;;;6.26;93.85;96480.94;5115536;28;20416;-62
2022/12/09 05:08:54;;;;;;;178.63;15.43;;;;;;;6.26;93.75;96476.56;5115348;28;20047;-62
2022/12/09 05:11:22;;;;;;;31.88;8.63;;;;;;;6.29;93.43;96467.88;5115396;28;20050;-62
2022/12/09 05:13:51;;;;;;;36.33;8.70;;;;;;;6.26;93.67;96467.94;5115283;28;20048;-62
2022/12/09 05:16:21;;;;;;;16.45;7.82;;;;;;;6.16;93.38;96468.13;5115070;28;20051;-62
2022/12/09 05:18:49;;;;;;;17.80;6.20;;;;;;;6.14;93.19;96469.06;5114893;28;20074;-62
2022/12/09 05:21:21;;;;;;;20.15;7.85;;;;;;;6.12;93.33;96468.22;5115401;28;20052;-62
2022/12/09 05:23:49;;;;;;;36.08;7.30;;;;;;;6.09;93.32;96463.09;5114770;28;20079;-62
2022/12/09 05:26:18;;;;;;;30.83;7.30;;;;;;;6.07;93.12;96463.13;5115155;28;20374;-62
2022/12/09 05:28:46;;;;;;;9.55;6.45;;;;;;;5.98;92.81;96461.53;5115134;28;20043;-62
2022/12/09 05:31:15;;;;;;;12.18;6.43;;;;;;;5.99;92.90;96465.00;5114913;28;20105;-62
2022/12/09 05:33:44;;;;;;;13.77;7.47;;;;;;;6.05;92.80;96467.50;5114850;28;20144;-62
2022/12/09 05:36:13;;;;;;;16.27;6.72;;;;;;;6.10;92.96;96475.19;5114804;28;20172;-62
2022/12/09 05:38:41;;;;;;;17.48;8.30;;;;;;;6.17;92.47;96476.78;5114660;28;20055;-62
2022/12/09 05:41:09;;;;;;;30.77;8.18;;;;;;;6.18;92.26;96483.69;5114530;28;20079;-62
2022/12/09 05:43:37;;;;;;;11.68;6.38;;;;;;;6.18;91.43;96479.31;5114694;28;20130;-62
2022/12/09 05:46:06;;;;;;;14.90;5.10;;;;;;;6.14;90.09;96482.03;5114795;28;20075;-62
2022/12/09 05:48:33;;;;;;;7.45;5.35;;;;;;;6.07;90.39;96484.75;5114641;28;20047;-62
2022/12/09 05:51:04;;;;;;;11.50;5.70;;;;;;;6.09;90.67;96486.47;5114923;28;20100;-62
2022/12/09 05:53:32;;;;;;;9.68;5.90;;;;;;;6.08;90.29;96485.59;5114569;28;20504;-62
2022/12/09 05:56:00;;;;;;;12.65;5.60;;;;;;;6.07;90.47;96491.69;5114516;28;20135;-62
2022/12/09 05:58:27;;;;;;;20.55;5.45;;;;;;;5.96;89.86;96494.47;5114391;28;20093;-62
2022/12/09 06:00:56;;;;;;;22.30;6.13;;;;;;;5.87;89.84;96490.31;5114321;28;20044;-62
2022/12/09 06:03:24;;;;;;;10.88;5.57;;;;;;;5.93;89.84;96491.97;5114305;28;20485;-62
2022/12/09 06:05:51;;;;;;;17.52;5.68;;;;;;;5.90;90.37;96492.03;5114351;28;20073;-62
2022/12/09 06:08:20;;;;;;;7.60;5.22;;;;;;;5.91;90.50;96484.19;5114310;28;20519;-62
2022/12/09 06:10:47;;;;;;;9.95;6.20;;;;;;;5.94;90.06;96491.06;5114316;28;20135;-62
2022/12/09 06:13:14;;;;;;;7.30;5.18;;;;;;;6.00;89.99;96490.06;5114082;28;20043;-62
2022/12/09 06:15:42;;;;;;;9.60;6.30;;;;;;;6.04;88.76;96489.16;5114021;28;20076;-62
2022/12/09 06:18:09;;;;;;;8.55;5.78;;;;;;;6.08;88.75;96490.78;5114109;28;20104;-62
2022/12/09 06:20:39;;;;;;;8.82;5.38;;;;;;;6.06;88.81;96496.03;5114131;28;20371;-62
2022/12/09 06:23:07;;;;;;;10.65;6.18;;;;;;;6.06;88.83;96506.41;5113995;28;20599;-62
2022/12/09 06:25:36;;;;;;;7.25;5.43;;;;;;;6.11;88.86;96503.72;5113947;28;20044;-62
2022/12/09 06:28:04;;;;;;;7.28;5.28;;;;;;;6.19;88.66;96501.84;5113935;28;20047;-62
2022/12/09 06:30:31;;;;;;;13.80;5.43;;;;;;;6.27;88.77;96501.69;5113925;28;20070;-62
2022/12/09 06:32:58;;;;;;;9.13;4.88;;;;;;;6.29;88.65;96505.06;5113780;28;20122;-62
2022/12/09 06:35:26;;;;;;;6.57;5.30;;;;;;;6.36;88.93;96495.41;5113066;28;20138;-63
2022/12/09 06:37:53;;;;;;;8.98;4.90;;;;;;;6.42;89.01;96505.66;5113842;28;20083;-62
2022/12/09 06:40:21;;;;;;;13.27;4.80;;;;;;;6.50;88.61;96507.25;5113580;28;20127;-62
2022/12/09 06:42:51;;;;;;;20.80;5.20;;;;;;;6.50;88.87;96510.69;5113670;28;20047;-62
2022/12/09 06:45:19;;;;;;;8.27;5.50;;;;;;;6.57;88.59;96514.03;5113616;28;20050;-62
2022/12/09 06:47:47;;;;;;;10.73;5.20;;;;;;;6.61;88.52;96514.78;5113640;28;20054;-62
2022/12/09 06:50:15;;;;;;;10.88;4.88;;;;;;;6.67;88.75;96517.25;5113644;28;20089;-62
2022/12/09 06:52:43;;;;;;;6.95;4.47;;;;;;;6.72;88.59;96518.03;5113520;28;20126;-62
2022/12/09 06:55:10;;;;;;;10.77;4.22;;;;;;;6.90;88.44;96506.34;5113492;28;20048;-62
2022/12/09 06:57:38;;;;;;;5.38;4.07;;;;;;;6.98;87.29;96507.91;5113467;28;20098;-62
2022/12/09 07:00:08;;;;;;;7.28;4.43;;;;;;;6.98;86.72;96497.50;5113419;28;20047;-62
2022/12/09 07:02:35;;;;;;;5.00;4.50;;;;;;;7.01;86.65;96502.63;5113494;28;20078;-62
2022/12/09 07:05:03;;;;;;;7.78;3.88;;;;;;;7.03;86.91;96498.22;5113378;28;20051;-62
2022/12/09 07:07:30;;;;;;;4.28;3.78;;;;;;;7.16;87.12;96496.16;5113343;28;20040;-62
2022/12/09 07:09:57;;;;;;;4.78;3.88;;;;;;;7.32;87.13;96486.25;5113481;28;20055;-62
2022/12/09 07:12:25;;;;;;;5.00;3.67;;;;;;;7.42;86.56;96492.06;5113433;28;20481;-62
2022/12/09 07:14:52;;;;;;;6.70;4.43;;;;;;;7.53;86.24;96492.63;5113321;28;20054;-62
2022/12/09 07:17:21;;;;;;;5.55;4.32;;;;;;;7.66;86.32;96487.94;5113278;28;20056;-62
2022/12/09 07:19:48;;;;;;;5.93;4.45;;;;;;;7.82;86.00;96495.31;5113369;28;20382;-62
2022/12/09 07:22:15;;;;;;;4.78;4.28;;;;;;;7.96;85.36;96497.56;5113372;28;20047;-62
2022/12/09 07:24:43;;;;;;;6.90;4.60;;;;;;;8.11;84.50;96500.63;5113191;28;20093;-62
2022/12/09 07:27:14;;;;;;;8.98;5.80;;;;;;;8.13;84.12;96491.00;5113231;28;20091;-63
2022/12/09 07:29:44;;;;;;;11.35;5.95;;;;;;;8.16;83.52;96496.13;5113263;28;20075;-63
2022/12/09 07:32:11;;;;;;;10.68;6.35;;;;;;;8.04;83.64;96499.94;5113244;28;20039;-62
2022/12/09 07:34:41;;;;;;;10.45;6.90;;;;;;;8.07;83.98;96503.31;5113191;28;20554;-62
2022/12/09 07:37:08;;;;;;;9.20;5.25;;;;;;;8.02;83.21;96501.72;5113062;28;20048;-62
2022/12/09 07:39:35;;;;;;;7.90;5.43;;;;;;;8.01;83.34;96507.84;5113116;28;20074;-62
2022/12/09 07:42:02;;;;;;;8.57;5.45;;;;;;;7.88;84.46;96507.31;5112887;28;20043;-62
2022/12/09 07:44:30;;;;;;;10.15;5.53;;;;;;;7.88;84.72;96510.78;5113210;28;20044;-62
2022/12/09 07:46:58;;;;;;;10.68;5.53;;;;;;;7.96;84.39;96518.41;5115649;28;20474;-62
2022/12/09 07:49:25;;;;;;;9.20;5.75;;;;;;;7.94;84.53;96528.00;5116922;28;20052;-62
2022/12/09 07:51:53;;;;;;;9.07;6.13;;;;;;;8.00;84.21;96521.78;5116899;28;20082;-62
2022/12/09 07:54:21;;;;;;;7.38;5.60;;;;;;;7.99;84.31;96525.25;5116888;28;20077;-62
2022/12/09 07:56:48;;;;;;;8.63;5.38;;;;;;;7.96;84.78;96528.81;5116576;28;20104;-62
2022/12/09 07:59:16;;;;;;;17.50;5.32;;;;;;;7.99;84.71;96530.47;5116750;28;20404;-62
2022/12/09 08:01:47;;;;;;;18.75;5.97;;;;;;;8.08;84.61;96528.47;5116703;28;20082;-62
2022/12/09 08:04:14;;;;;;;6.53;5.28;;;;;;;8.18;84.87;96533.41;5116679;28;20044;-62
2022/12/09 08:06:41;;;;;;;8.93;5.45;;;;;;;8.36;84.54;96534.63;5116611;28;20048;-62
2022/12/09 08:09:12;;;;;;;7.03;5.35;;;;;;;8.44;84.07;96535.28;5116582;28;20090;-62
2022/12/09 08:11:39;;;;;;;;;;;;;;;8.46;83.59;96540.44;5116890;28;20043;-62
2022/12/09 08:14:08;;;;;;;8.77;6.07;;;;;;;8.42;83.49;96542.28;5116482;28;19965;-62
2022/12/09 08:16:36;;;;;;;7.43;5.60;;;;;;;8.47;83.58;96537.81;5116376;28;20085;-62
2022/12/09 08:19:03;;;;;;;10.73;6.47;;;;;;;8.56;83.54;96541.91;5116443;28;20043;-62
2022/12/09 08:21:32;;;;;;;9.85;6.13;;;;;;;8.55;83.23;96540.19;5116403;28;20048;-62
2022/12/09 08:24:01;;;;;;;7.65;6.38;;;;;;;8.63;83.39;96536.50;5116352;28;20051;-62
2022/12/09 08:26:32;;;;;;;8.38;6.18;;;;;;;8.64;83.27;96541.66;5116243;28;20040;-63
2022/12/09 08:29:00;;;;;;;9.93;6.28;;;;;;;8.68;83.11;96534.59;5116218;28;20446;-61
2022/12/09 08:31:27;;;;;;;9.18;6.47;;;;;;;8.74;82.65;96538.78;5116186;28;20100;-63
2022/12/09 08:33:56;;;;;;;7.45;6.15;;;;;;;8.69;82.44;96531.97;5116179;28;20052;-63
2022/12/09 08:36:26;;;;;;;10.88;6.78;;;;;;;8.75;82.61;96528.31;5116020;28;20053;-63
2022/12/09 08:38:54;;;;;;;8.68;6.55;;;;;;;8.81;82.33;96532.47;5116150;28;20130;-63
2022/12/09 08:41:33;;;;;;;10.88;6.40;;;;;;;8.88;82.29;96526.16;5115702;28;20127;-63
2022/12/09 08:44:03;;;;;;;11.48;7.38;;;;;;;8.95;81.75;96519.88;5115910;28;20047;-62
2022/12/09 08:46:30;;;;;;;9.83;7.47;;;;;;;8.96;82.05;96531.13;5115954;28;20040;-63
2022/12/09 08:49:00;;;;;;;13.90;7.55;;;;;;;9.06;81.46;96518.66;5115845;28;20143;-62
2022/12/09 08:51:28;;;;;;;12.85;7.35;;;;;;;9.13;81.19;96520.16;5115885;28;20447;-62
2022/12/09 08:53:55;;;;;;;12.52;6.90;;;;;;;9.16;80.78;96521.81;5115711;28;20039;-63
2022/12/09 08:56:22;;;;;;;10.15;7.20;;;;;;;9.16;80.87;96514.84;5115582;28;20047;-63
2022/12/09 08:58:50;;;;;;;7.97;5.88;;;;;;;9.20;80.85;96511.22;5114915;28;20047;-62
2022/12/09 09:01:24;;;;;;;8.77;6.53;;;;;;;9.26;80.33;96502.34;5115492;28;20043;-63
2022/12/09 09:03:52;;;;;;;11.43;5.90;;;;;;;9.41;80.72;96502.72;5115548;28;20048;-63
2022/12/09 09:06:20;;;;;;;9.63;5.68;;;;;;;9.43;81.18;96495.69;5115457;28;20544;-63
2022/12/09 09:08:47;;;;;;;10.43;5.75;;;;;;;9.48;80.86;96497.25;5115382;28;20135;-62
2022/12/09 09:11:16;;;;;;;9.73;6.47;;;;;;;9.62;80.66;96490.69;5115366;28;20073;-62
2022/12/09 09:13:44;;;;;;;12.85;6.43;;;;;;;9.71;80.54;96490.38;5115368;28;20451;-63
2022/12/09 09:16:13;;;;;;;11.02;6.13;;;;;;;9.76;79.78;96486.75;5115161;28;20048;-63
2022/12/09 09:18:43;;;;;;;18.42;6.35;;;;;;;9.75;79.10;96478.03;5115258;28;20048;-63
2022/12/09 09:21:13;;;;;;;10.90;6.22;;;;;;;9.72;79.88;96483.38;5115268;28;20039;-63
2022/12/09 09:23:41;;;;;;;15.07;6.90;;;;;;;9.69;80.53;96481.72;5115178;28;20477;-62
2022/12/09 09:26:11;;;;;;;15.70;7.60;;;;;;;9.65;81.09;96482.75;5115083;28;20048;-63
2022/12/09 09:28:38;;;;;;;17.80;9.70;;;;;;;9.60;81.62;96479.44;5115001;28;20058;-63
2022/12/09 09:31:07;;;;;;;18.73;12.90;;;;;;;9.49;81.71;96479.81;5114959;28;20081;-63
2022/12/09 09:33:35;;;;;;;25.30;13.38;;;;;;;9.46;82.15;96474.72;5114921;28;20101;-63
2022/12/09 09:36:06;;;;;;;34.15;15.95;;;;;;;9.45;82.48;96473.00;5114853;28;20455;-62
2022/12/09 09:38:33;;;;;;;26.35;15.52;;;;;;;9.47;82.57;96464.22;5114738;28;20511;-62
2022/12/09 09:41:02;;;;;;;33.85;16.58;;;;;;;9.49;82.60;96461.56;5114568;28;20400;-63
2022/12/09 09:43:33;;;;;;;30.08;16.17;;;;;;;9.54;82.52;96454.41;5114648;28;20404;-62
2022/12/09 09:46:01;;;;;;;34.70;16.73;;;;;;;9.55;82.33;96456.13;5114769;28;20055;-63
2022/12/09 09:48:32;;;;;;;33.38;16.10;;;;;;;9.57;82.39;96443.00;5114641;28;20048;-63
2022/12/09 09:51:02;;;;;;;;;;;;;;;9.55;82.66;96450.03;5115004;28;20062;-62
2022/12/09 09:53:33;;;;;;;31.83;17.57;;;;;;;9.38;83.06;96455.81;5114531;28;19972;-62
2022/12/09 09:56:02;;;;;;;39.30;18.58;;;;;;;9.33;83.64;96443.78;5114318;28;20284;-63
2022/12/09 09:58:38;;;;;;;47.90;24.25;;;;;;;9.27;84.89;96438.78;5114380;28;20058;-62
2022/12/09 10:01:07;;;;;;;48.75;25.27;;;;;;;9.22;84.85;96433.72;5114342;28;20417;-62
2022/12/09 10:03:49;;;;;;;39.72;23.55;;;;;;;9.32;85.03;96441.25;5114345;28;20078;-62
2022/12/09 10:06:28;;;;;;;46.85;27.45;;;;;;;9.42;84.92;96434.78;5114281;28;20126;-63
2022/12/09 10:09:04;;;;;;;45.75;22.63;;;;;;;9.49;84.06;96430.22;5113874;28;20100;-63
2022/12/09 10:11:37;;;;;;;40.65;21.35;;;;;;;9.64;84.15;96433.19;5113866;28;20493;-62
2022/12/09 10:14:14;;;;;;;39.13;22.40;;;;;;;9.75;83.62;96428.41;5114092;28;20493;-63
2022/12/09 10:16:47;;;;;;;42.65;23.15;;;;;;;9.81;83.24;96425.56;5114081;28;20051;-62
2022/12/09 10:19:19;;;;;;;38.83;21.73;;;;;;;9.92;83.55;96425.19;5114076;28;20043;-63
2022/12/09 10:21:50;;;;;;;34.38;19.98;;;;;;;9.96;82.50;96415.47;5113934;28;20086;-63
2022/12/09 10:24:23;;;;;;;32.92;19.23;;;;;;;10.07;82.43;96409.84;5113989;28;20071;-63
2022/12/09 10:27:04;;;;;;;40.05;21.55;;;;;;;10.05;82.65;96414.28;5113954;28;20166;-63
2022/12/09 10:29:41;;;;;;;;;;;;;;;10.06;82.61;96405.53;5114409;28;20082;-63
2022/12/09 10:32:15;;;;;;;39.70;23.10;;;;;;;10.14;82.18;96411.28;5113926;28;19919;-63
2022/12/09 10:34:43;;;;;;;52.53;27.17;;;;;;;10.23;82.25;96400.50;5113896;28;20205;-63
2022/12/09 10:37:24;;;;;;;55.58;28.48;;;;;;;10.33;81.90;96390.53;5113681;28;20055;-62
2022/12/09 10:39:58;;;;;;;54.58;29.02;;;;;;;10.39;81.36;96384.22;5113736;28;20048;-63
2022/12/09 10:45:11;;;;;;;53.15;31.05;;;;;;;10.57;80.68;96394.88;5113792;28;20062;-63
2022/12/09 10:47:39;;;;;;;49.15;30.70;;;;;;;10.60;79.60;96402.59;5113661;28;20535;-63
2022/12/09 10:50:19;;;;;;;52.55;28.38;;;;;;;10.49;79.24;96396.03;5113568;28;20051;-63
2022/12/09 10:52:46;;;;;;;51.08;27.40;;;;;;;10.52;79.35;96386.34;5113643;28;20086;-63
2022/12/09 10:55:31;;;;;;;50.42;29.10;;;;;;;10.55;79.03;96384.47;5113515;28;20044;-63
2022/12/09 10:58:13;;;;;;;46.78;26.77;;;;;;;10.63;78.87;96375.47;5113495;28;20047;-63
2022/12/09 11:00:40;;;;;;;50.70;26.67;;;;;;;10.71;78.76;96357.69;5113672;28;21136;-63
2022/12/09 11:03:25;;;;;;;54.13;27.70;;;;;;;10.85;77.16;96354.50;5113547;28;20504;-63
2022/12/09 11:05:57;;;;;;;61.22;28.17;;;;;;;10.98;77.05;96360.06;5113497;28;20047;-63
2022/12/09 11:08:25;;;;;;;52.00;26.52;;;;;;;10.95;76.73;96361.03;5113428;28;20055;-63
2022/12/09 11:10:54;;;;;;;49.88;28.20;;;;;;;11.07;76.61;96356.19;5113489;28;20044;-63
2022/12/09 11:13:35;;;;;;;46.70;26.67;;;;;;;11.14;76.77;96355.03;5113262;28;20512;-63
2022/12/09 11:16:06;;;;;;;48.58;26.00;;;;;;;11.12;75.52;96352.47;5113345;28;20064;-63
2022/12/09 11:18:40;;;;;;;52.67;25.67;;;;;;;10.99;76.39;96344.28;5113308;28;20058;-63
2022/12/09 11:21:28;;;;;;;45.58;24.83;;;;;;;10.92;76.99;96342.84;5114511;28;20047;-63
2022/12/09 11:23:55;;;;;;;42.58;24.45;;;;;;;10.91;77.15;96345.53;5117501;28;20485;-62
2022/12/09 11:26:26;;;;;;;46.50;23.23;;;;;;;11.01;76.76;96343.38;5117435;28;20100;-63
2022/12/09 11:29:03;;;;;;;48.83;24.70;;;;;;;11.06;76.51;96334.41;5117338;28;20122;-63
2022/12/09 11:31:33;;;;;;;43.13;23.52;;;;;;;11.09;76.25;96341.28;5117410;28;20048;-63
2022/12/09 11:34:03;;;;;;;44.67;23.05;;;;;;;11.03;76.12;96346.78;5117373;28;20143;-63
2022/12/09 11:36:34;;;;;;;39.55;23.60;;;;;;;10.98;76.58;96334.75;5116994;28;20086;-63
2022/12/09 11:39:19;;;;;;;39.90;21.88;;;;;;;10.97;76.21;96337.41;5117210;28;20134;-63
2022/12/09 11:44:36;;;;;;;45.47;21.65;;;;;;;11.04;76.23;96335.38;5117267;28;20458;-63
2022/12/09 11:47:09;;;;;;;35.80;21.10;;;;;;;11.09;76.05;96326.44;5116985;28;20044;-63